sensor_id;sensor_type;location;lat;lon;timestamp;temperature;humidity
23717;DHT22;22094;52.130;5.598;2023-08-21T00:01:59;18.10;99.90
23717;DHT22;22094;52.130;5.598;2023-08-21T00:04:24;17.90;99.90
23717;DHT22;22094;52.130;5.598;2023-08-21T00:06:50;17.90;99.90
23717;DHT22;22094;52.130;5.598;2023-08-21T00:09:16;17.80;99.90
23717;DHT22;22094;52.130;5.598;2023-08-21T00:11:41;17.80;1.00
23717;DHT22;22094;52.130;5.598;2023-08-21T00:14:07;17.70;1.00
23717;DHT22;22094;52.130;5.598;2023-08-21T00:16:32;17.80;1.00
23717;DHT22;22094;52.130;5.598;2023-08-21T00:18:58;17.70;1.00
23717;DHT22;22094;52.130;5.598;2023-08-21T00:21:24;17.70;1.00
23717;DHT22;22094;52.130;5.598;2023-08-21T00:23:49;17.90;1.00
23717;DHT22;22094;52.130;5.598;2023-08-21T00:26:15;17.80;1.00
23717;DHT22;22094;52.130;5.598;2023-08-21T00:28:41;17.80;1.00
23717;DHT22;22094;52.130;5.598;2023-08-21T00:31:06;17.80;1.00
23717;DHT22;22094;52.130;5.598;2023-08-21T00:33:32;17.80;1.00
23717;DHT22;22094;52.130;5.598;2023-08-21T00:35:58;17.80;1.00
23717;DHT22;22094;52.130;5.598;2023-08-21T00:38:24;17.80;1.00
23717;DHT22;22094;52.130;5.598;2023-08-21T00:40:51;17.80;1.00
23717;DHT22;22094;52.130;5.598;2023-08-21T00:43:16;17.90;1.00
23717;DHT22;22094;52.130;5.598;2023-08-21T00:45:43;17.80;1.00
23717;DHT22;22094;52.130;5.598;2023-08-21T00:48:10;17.80;1.00
23717;DHT22;22094;52.130;5.598;2023-08-21T00:50:37;17.80;1.00
23717;DHT22;22094;52.130;5.598;2023-08-21T00:53:04;17.90;99.90
23717;DHT22;22094;52.130;5.598;2023-08-21T00:55:30;17.90;1.00
23717;DHT22;22094;52.130;5.598;2023-08-21T00:57:56;17.90;1.00
23717;DHT22;22094;52.130;5.598;2023-08-21T01:00:24;17.90;1.00
23717;DHT22;22094;52.130;5.598;2023-08-21T01:02:50;17.90;1.00
23717;DHT22;22094;52.130;5.598;2023-08-21T01:05:18;17.80;1.00
23717;DHT22;22094;52.130;5.598;2023-08-21T01:08:01;17.80;1.00
23717;DHT22;22094;52.130;5.598;2023-08-21T01:10:52;17.80;99.90
23717;DHT22;22094;52.130;5.598;2023-08-21T01:13:34;17.70;1.00
23717;DHT22;22094;52.130;5.598;2023-08-21T01:16:03;17.70;1.00
23717;DHT22;22094;52.130;5.598;2023-08-21T01:18:31;17.70;1.00
23717;DHT22;22094;52.130;5.598;2023-08-21T01:20:59;17.60;1.00
23717;DHT22;22094;52.130;5.598;2023-08-21T01:23:38;17.70;1.00
23717;DHT22;22094;52.130;5.598;2023-08-21T01:26:04;17.60;1.00
23717;DHT22;22094;52.130;5.598;2023-08-21T01:28:31;17.60;99.90
23717;DHT22;22094;52.130;5.598;2023-08-21T01:31:31;17.40;1.00
23717;DHT22;22094;52.130;5.598;2023-08-21T01:34:01;17.40;1.00
23717;DHT22;22094;52.130;5.598;2023-08-21T01:36:29;17.50;1.00
23717;DHT22;22094;52.130;5.598;2023-08-21T01:38:56;17.50;99.90
23717;DHT22;22094;52.130;5.598;2023-08-21T01:41:25;17.50;99.90
23717;DHT22;22094;52.130;5.598;2023-08-21T01:43:51;17.50;68.50
23717;DHT22;22094;52.130;5.598;2023-08-21T01:46:17;17.50;99.90
23717;DHT22;22094;52.130;5.598;2023-08-21T01:48:42;17.60;99.90
23717;DHT22;22094;52.130;5.598;2023-08-21T01:51:08;17.60;1.00
23717;DHT22;22094;52.130;5.598;2023-08-21T01:53:34;17.70;1.00
23717;DHT22;22094;52.130;5.598;2023-08-21T01:55:59;17.70;1.00
23717;DHT22;22094;52.130;5.598;2023-08-21T01:58:25;17.60;1.00
23717;DHT22;22094;52.130;5.598;2023-08-21T02:00:51;17.60;1.00
23717;DHT22;22094;52.130;5.598;2023-08-21T02:03:16;17.70;99.90
23717;DHT22;22094;52.130;5.598;2023-08-21T02:05:42;17.60;1.00
23717;DHT22;22094;52.130;5.598;2023-08-21T02:08:13;17.60;1.00
23717;DHT22;22094;52.130;5.598;2023-08-21T02:10:59;17.60;1.00
23717;DHT22;22094;52.130;5.598;2023-08-21T02:13:25;17.60;99.90
23717;DHT22;22094;52.130;5.598;2023-08-21T02:15:51;17.60;1.00
23717;DHT22;22094;52.130;5.598;2023-08-21T02:18:16;17.60;43.70
23717;DHT22;22094;52.130;5.598;2023-08-21T02:20:42;17.60;99.90
23717;DHT22;22094;52.130;5.598;2023-08-21T02:23:08;17.50;1.00
23717;DHT22;22094;52.130;5.598;2023-08-21T02:25:33;17.70;1.00
23717;DHT22;22094;52.130;5.598;2023-08-21T02:27:59;17.50;54.70
23717;DHT22;22094;52.130;5.598;2023-08-21T02:30:26;17.50;9.60
23717;DHT22;22094;52.130;5.598;2023-08-21T02:32:53;17.50;1.00
23717;DHT22;22094;52.130;5.598;2023-08-21T02:35:20;17.50;1.00
23717;DHT22;22094;52.130;5.598;2023-08-21T02:37:45;17.50;1.00
23717;DHT22;22094;52.130;5.598;2023-08-21T02:40:11;17.50;1.00
23717;DHT22;22094;52.130;5.598;2023-08-21T02:42:37;17.50;1.00
23717;DHT22;22094;52.130;5.598;2023-08-21T02:45:03;17.40;1.00
23717;DHT22;22094;52.130;5.598;2023-08-21T02:47:37;17.50;99.90
23717;DHT22;22094;52.130;5.598;2023-08-21T02:50:04;17.50;99.90
23717;DHT22;22094;52.130;5.598;2023-08-21T02:52:30;17.40;99.90
23717;DHT22;22094;52.130;5.598;2023-08-21T02:54:56;17.40;99.90
23717;DHT22;22094;52.130;5.598;2023-08-21T02:57:23;17.40;1.00
23717;DHT22;22094;52.130;5.598;2023-08-21T02:59:48;17.40;99.90
23717;DHT22;22094;52.130;5.598;2023-08-21T03:02:14;17.40;99.90
23717;DHT22;22094;52.130;5.598;2023-08-21T03:04:40;17.50;99.90
23717;DHT22;22094;52.130;5.598;2023-08-21T03:07:05;17.50;99.90
23717;DHT22;22094;52.130;5.598;2023-08-21T03:09:31;17.50;99.90
23717;DHT22;22094;52.130;5.598;2023-08-21T03:11:57;17.50;99.90
23717;DHT22;22094;52.130;5.598;2023-08-21T03:14:22;17.50;99.90
23717;DHT22;22094;52.130;5.598;2023-08-21T03:16:48;17.50;99.90
23717;DHT22;22094;52.130;5.598;2023-08-21T03:19:13;17.40;99.90
23717;DHT22;22094;52.130;5.598;2023-08-21T03:21:39;17.40;99.90
23717;DHT22;22094;52.130;5.598;2023-08-21T03:24:06;17.40;99.90
23717;DHT22;22094;52.130;5.598;2023-08-21T03:26:32;17.40;99.90
23717;DHT22;22094;52.130;5.598;2023-08-21T03:28:57;17.30;99.90
23717;DHT22;22094;52.130;5.598;2023-08-21T03:31:23;17.20;99.90
23717;DHT22;22094;52.130;5.598;2023-08-21T03:33:48;17.20;99.90
23717;DHT22;22094;52.130;5.598;2023-08-21T03:36:14;17.10;1.00
23717;DHT22;22094;52.130;5.598;2023-08-21T03:38:40;17.00;1.00
23717;DHT22;22094;52.130;5.598;2023-08-21T03:41:06;16.90;1.00
23717;DHT22;22094;52.130;5.598;2023-08-21T03:43:32;16.90;1.00
23717;DHT22;22094;52.130;5.598;2023-08-21T03:45:57;16.90;82.70
23717;DHT22;22094;52.130;5.598;2023-08-21T03:48:23;16.80;99.90
23717;DHT22;22094;52.130;5.598;2023-08-21T03:50:49;16.70;99.90
23717;DHT22;22094;52.130;5.598;2023-08-21T03:53:15;16.60;99.90
23717;DHT22;22094;52.130;5.598;2023-08-21T03:55:41;16.50;99.90
23717;DHT22;22094;52.130;5.598;2023-08-21T03:58:06;16.50;1.00
23717;DHT22;22094;52.130;5.598;2023-08-21T04:00:32;16.50;1.00
23717;DHT22;22094;52.130;5.598;2023-08-21T04:02:58;16.40;1.00
23717;DHT22;22094;52.130;5.598;2023-08-21T04:05:24;16.40;1.00
23717;DHT22;22094;52.130;5.598;2023-08-21T04:07:49;16.50;1.00
23717;DHT22;22094;52.130;5.598;2023-08-21T04:10:15;16.40;1.00
23717;DHT22;22094;52.130;5.598;2023-08-21T04:12:42;16.40;1.00
23717;DHT22;22094;52.130;5.598;2023-08-21T04:15:08;16.40;1.00
23717;DHT22;22094;52.130;5.598;2023-08-21T04:17:34;16.40;1.00
23717;DHT22;22094;52.130;5.598;2023-08-21T04:19:59;16.40;1.00
23717;DHT22;22094;52.130;5.598;2023-08-21T04:22:25;16.40;1.00
23717;DHT22;22094;52.130;5.598;2023-08-21T04:24:50;16.40;1.00
23717;DHT22;22094;52.130;5.598;2023-08-21T04:27:16;16.50;1.00
23717;DHT22;22094;52.130;5.598;2023-08-21T04:29:42;16.50;1.00
23717;DHT22;22094;52.130;5.598;2023-08-21T04:32:07;16.50;1.00
23717;DHT22;22094;52.130;5.598;2023-08-21T04:34:33;16.60;1.00
23717;DHT22;22094;52.130;5.598;2023-08-21T04:36:59;16.60;1.00
23717;DHT22;22094;52.130;5.598;2023-08-21T04:39:28;16.60;1.00
23717;DHT22;22094;52.130;5.598;2023-08-21T04:41:53;16.70;1.00
23717;DHT22;22094;52.130;5.598;2023-08-21T04:44:19;16.60;1.00
23717;DHT22;22094;52.130;5.598;2023-08-21T04:46:48;16.70;1.00
23717;DHT22;22094;52.130;5.598;2023-08-21T04:49:13;16.70;1.00
23717;DHT22;22094;52.130;5.598;2023-08-21T04:51:39;16.70;1.00
23717;DHT22;22094;52.130;5.598;2023-08-21T04:54:05;16.70;1.00
23717;DHT22;22094;52.130;5.598;2023-08-21T04:56:30;16.70;1.00
23717;DHT22;22094;52.130;5.598;2023-08-21T04:58:56;16.70;1.00
23717;DHT22;22094;52.130;5.598;2023-08-21T05:01:21;16.70;1.00
23717;DHT22;22094;52.130;5.598;2023-08-21T05:03:47;16.70;1.00
23717;DHT22;22094;52.130;5.598;2023-08-21T05:06:13;16.70;1.00
23717;DHT22;22094;52.130;5.598;2023-08-21T05:08:38;16.70;1.00
23717;DHT22;22094;52.130;5.598;2023-08-21T05:11:04;16.80;1.00
23717;DHT22;22094;52.130;5.598;2023-08-21T05:13:29;16.80;1.00
23717;DHT22;22094;52.130;5.598;2023-08-21T05:15:57;16.90;1.00
23717;DHT22;22094;52.130;5.598;2023-08-21T05:18:23;17.00;1.00
23717;DHT22;22094;52.130;5.598;2023-08-21T05:20:53;17.00;1.00
23717;DHT22;22094;52.130;5.598;2023-08-21T05:23:19;17.10;1.00
23717;DHT22;22094;52.130;5.598;2023-08-21T05:25:46;17.20;1.00
23717;DHT22;22094;52.130;5.598;2023-08-21T05:30:38;17.20;99.90
23717;DHT22;22094;52.130;5.598;2023-08-21T05:33:04;18.40;99.90
23717;DHT22;22094;52.130;5.598;2023-08-21T05:35:36;16.90;99.90
23717;DHT22;22094;52.130;5.598;2023-08-21T05:38:02;17.30;99.90
23717;DHT22;22094;52.130;5.598;2023-08-21T05:40:28;17.40;97.30
23717;DHT22;22094;52.130;5.598;2023-08-21T05:42:54;17.40;60.30
23717;DHT22;22094;52.130;5.598;2023-08-21T05:45:19;17.50;57.40
23717;DHT22;22094;52.130;5.598;2023-08-21T05:47:45;17.50;99.90
23717;DHT22;22094;52.130;5.598;2023-08-21T05:50:10;17.40;99.90
23717;DHT22;22094;52.130;5.598;2023-08-21T05:52:36;17.40;99.90
23717;DHT22;22094;52.130;5.598;2023-08-21T05:55:02;17.60;1.00
23717;DHT22;22094;52.130;5.598;2023-08-21T05:57:28;17.70;1.00
23717;DHT22;22094;52.130;5.598;2023-08-21T05:59:53;20.60;99.90
23717;DHT22;22094;52.130;5.598;2023-08-21T06:02:19;18.20;99.90
23717;DHT22;22094;52.130;5.598;2023-08-21T06:04:45;18.50;99.90
23717;DHT22;22094;52.130;5.598;2023-08-21T06:07:11;18.70;1.00
23717;DHT22;22094;52.130;5.598;2023-08-21T06:09:40;19.00;1.00
23717;DHT22;22094;52.130;5.598;2023-08-21T06:12:05;19.20;1.00
23717;DHT22;22094;52.130;5.598;2023-08-21T06:14:31;19.40;1.00
23717;DHT22;22094;52.130;5.598;2023-08-21T06:16:59;19.60;99.90
23717;DHT22;22094;52.130;5.598;2023-08-21T06:19:24;19.80;1.00
23717;DHT22;22094;52.130;5.598;2023-08-21T06:21:50;20.90;1.00
23717;DHT22;22094;52.130;5.598;2023-08-21T06:24:16;20.00;1.00
23717;DHT22;22094;52.130;5.598;2023-08-21T06:26:41;20.40;1.00
23717;DHT22;22094;52.130;5.598;2023-08-21T06:29:07;20.10;1.00
23717;DHT22;22094;52.130;5.598;2023-08-21T06:31:32;20.30;1.00
23717;DHT22;22094;52.130;5.598;2023-08-21T06:33:58;20.50;1.00
23717;DHT22;22094;52.130;5.598;2023-08-21T06:36:24;20.80;99.90
23717;DHT22;22094;52.130;5.598;2023-08-21T06:38:49;20.90;99.90
23717;DHT22;22094;52.130;5.598;2023-08-21T06:41:15;21.10;99.90
23717;DHT22;22094;52.130;5.598;2023-08-21T06:43:41;21.30;99.90
23717;DHT22;22094;52.130;5.598;2023-08-21T06:46:07;21.50;37.30
23717;DHT22;22094;52.130;5.598;2023-08-21T06:48:33;22.30;1.00
23717;DHT22;22094;52.130;5.598;2023-08-21T06:50:59;22.80;1.00
23717;DHT22;22094;52.130;5.598;2023-08-21T06:53:25;22.80;1.00
23717;DHT22;22094;52.130;5.598;2023-08-21T06:55:50;24.40;1.00
23717;DHT22;22094;52.130;5.598;2023-08-21T06:58:16;24.50;1.00
23717;DHT22;22094;52.130;5.598;2023-08-21T07:00:41;24.60;1.00
23717;DHT22;22094;52.130;5.598;2023-08-21T07:03:07;24.30;1.00
23717;DHT22;22094;52.130;5.598;2023-08-21T07:05:33;24.90;1.00
23717;DHT22;22094;52.130;5.598;2023-08-21T07:07:59;23.80;1.00
23717;DHT22;22094;52.130;5.598;2023-08-21T07:10:25;24.00;1.00
23717;DHT22;22094;52.130;5.598;2023-08-21T07:12:53;23.70;1.00
23717;DHT22;22094;52.130;5.598;2023-08-21T07:15:18;23.60;1.00
23717;DHT22;22094;52.130;5.598;2023-08-21T07:17:44;24.00;1.00
23717;DHT22;22094;52.130;5.598;2023-08-21T07:20:10;24.80;1.00
23717;DHT22;22094;52.130;5.598;2023-08-21T07:22:36;25.90;1.00
23717;DHT22;22094;52.130;5.598;2023-08-21T07:25:01;24.10;1.00
23717;DHT22;22094;52.130;5.598;2023-08-21T07:27:30;24.10;1.00
23717;DHT22;22094;52.130;5.598;2023-08-21T07:29:55;25.70;1.00
23717;DHT22;22094;52.130;5.598;2023-08-21T07:32:21;23.10;1.00
23717;DHT22;22094;52.130;5.598;2023-08-21T07:37:13;26.20;1.00
23717;DHT22;22094;52.130;5.598;2023-08-21T07:39:38;23.50;1.00
23717;DHT22;22094;52.130;5.598;2023-08-21T07:42:04;25.50;1.00
23717;DHT22;22094;52.130;5.598;2023-08-21T07:44:30;25.60;1.00
23717;DHT22;22094;52.130;5.598;2023-08-21T07:46:55;27.70;1.00
23717;DHT22;22094;52.130;5.598;2023-08-21T07:51:47;27.40;99.90
23717;DHT22;22094;52.130;5.598;2023-08-21T07:54:12;25.60;99.90
23717;DHT22;22094;52.130;5.598;2023-08-21T07:59:06;25.70;99.90
23717;DHT22;22094;52.130;5.598;2023-08-21T08:01:31;24.90;99.90
23717;DHT22;22094;52.130;5.598;2023-08-21T08:06:24;25.30;99.90
23717;DHT22;22094;52.130;5.598;2023-08-21T08:08:49;25.90;99.90
23717;DHT22;22094;52.130;5.598;2023-08-21T08:11:15;26.30;99.90
23717;DHT22;22094;52.130;5.598;2023-08-21T08:16:07;26.10;99.90
23717;DHT22;22094;52.130;5.598;2023-08-21T08:20:58;26.90;99.90
23717;DHT22;22094;52.130;5.598;2023-08-21T08:23:24;26.70;99.90
23717;DHT22;22094;52.130;5.598;2023-08-21T08:25:50;26.20;99.90
23717;DHT22;22094;52.130;5.598;2023-08-21T08:28:15;27.70;99.90
23717;DHT22;22094;52.130;5.598;2023-08-21T08:30:41;26.00;99.90
23717;DHT22;22094;52.130;5.598;2023-08-21T08:33:07;25.10;99.90
23717;DHT22;22094;52.130;5.598;2023-08-21T08:35:32;25.30;99.90
23717;DHT22;22094;52.130;5.598;2023-08-21T08:37:58;25.50;99.90
23717;DHT22;22094;52.130;5.598;2023-08-21T08:40:23;25.80;99.90
23717;DHT22;22094;52.130;5.598;2023-08-21T08:45:17;25.70;99.90
23717;DHT22;22094;52.130;5.598;2023-08-21T08:50:15;26.30;99.90
23717;DHT22;22094;52.130;5.598;2023-08-21T08:52:42;26.20;99.90
23717;DHT22;22094;52.130;5.598;2023-08-21T08:55:08;25.30;99.90
23717;DHT22;22094;52.130;5.598;2023-08-21T08:57:39;25.80;99.90
23717;DHT22;22094;52.130;5.598;2023-08-21T09:00:05;25.40;99.90
23717;DHT22;22094;52.130;5.598;2023-08-21T09:02:31;25.10;99.90
23717;DHT22;22094;52.130;5.598;2023-08-21T09:09:50;30.00;99.90
23717;DHT22;22094;52.130;5.598;2023-08-21T09:12:17;26.50;99.90
23717;DHT22;22094;52.130;5.598;2023-08-21T09:14:44;25.90;99.90
23717;DHT22;22094;52.130;5.598;2023-08-21T09:17:10;25.40;99.90
23717;DHT22;22094;52.130;5.598;2023-08-21T09:19:36;26.30;99.90
23717;DHT22;22094;52.130;5.598;2023-08-21T09:22:10;26.70;99.90
23717;DHT22;22094;52.130;5.598;2023-08-21T09:24:37;26.60;99.90
23717;DHT22;22094;52.130;5.598;2023-08-21T09:29:40;25.30;99.90
23717;DHT22;22094;52.130;5.598;2023-08-21T09:32:06;27.40;99.90
23717;DHT22;22094;52.130;5.598;2023-08-21T09:34:35;27.30;99.90
23717;DHT22;22094;52.130;5.598;2023-08-21T09:37:05;26.50;99.90
23717;DHT22;22094;52.130;5.598;2023-08-21T09:39:35;26.90;99.90
23717;DHT22;22094;52.130;5.598;2023-08-21T09:42:07;27.10;99.90
23717;DHT22;22094;52.130;5.598;2023-08-21T09:44:38;27.60;99.90
23717;DHT22;22094;52.130;5.598;2023-08-21T09:47:07;27.40;99.90
23717;DHT22;22094;52.130;5.598;2023-08-21T09:49:33;28.30;99.90
23717;DHT22;22094;52.130;5.598;2023-08-21T09:56:51;26.30;99.90
23717;DHT22;22094;52.130;5.598;2023-08-21T09:59:17;27.10;99.90
23717;DHT22;22094;52.130;5.598;2023-08-21T10:01:44;27.10;99.90
23717;DHT22;22094;52.130;5.598;2023-08-21T10:04:12;25.60;99.90
23717;DHT22;22094;52.130;5.598;2023-08-21T10:09:04;25.50;99.90
23717;DHT22;22094;52.130;5.598;2023-08-21T10:16:23;27.00;99.90
23717;DHT22;22094;52.130;5.598;2023-08-21T10:26:09;28.10;99.90
23717;DHT22;22094;52.130;5.598;2023-08-21T10:28:55;27.70;99.90
23717;DHT22;22094;52.130;5.598;2023-08-21T10:31:39;27.70;99.90
23717;DHT22;22094;52.130;5.598;2023-08-21T10:34:07;27.80;99.90
23717;DHT22;22094;52.130;5.598;2023-08-21T10:39:22;27.80;99.90
23717;DHT22;22094;52.130;5.598;2023-08-21T10:42:01;27.50;99.90
23717;DHT22;22094;52.130;5.598;2023-08-21T10:44:48;27.50;99.90
23717;DHT22;22094;52.130;5.598;2023-08-21T10:49:48;27.40;99.90
23717;DHT22;22094;52.130;5.598;2023-08-21T10:52:15;27.90;99.90
23717;DHT22;22094;52.130;5.598;2023-08-21T10:54:50;28.00;99.90
23717;DHT22;22094;52.130;5.598;2023-08-21T10:59:59;28.10;99.90
23717;DHT22;22094;52.130;5.598;2023-08-21T11:04:53;27.80;99.90
23717;DHT22;22094;52.130;5.598;2023-08-21T11:12:13;28.30;99.90
23717;DHT22;22094;52.130;5.598;2023-08-21T11:14:40;28.40;99.90
23717;DHT22;22094;52.130;5.598;2023-08-21T11:19:35;28.70;99.90
23717;DHT22;22094;52.130;5.598;2023-08-21T11:22:01;29.00;99.90
23717;DHT22;22094;52.130;5.598;2023-08-21T11:24:39;29.00;99.90
23717;DHT22;22094;52.130;5.598;2023-08-21T11:29:49;29.30;99.90
23717;DHT22;22094;52.130;5.598;2023-08-21T11:32:19;29.10;99.90
23717;DHT22;22094;52.130;5.598;2023-08-21T11:34:51;28.20;99.90
23717;DHT22;22094;52.130;5.598;2023-08-21T11:37:19;29.30;99.90
23717;DHT22;22094;52.130;5.598;2023-08-21T11:39:49;29.10;99.90
23717;DHT22;22094;52.130;5.598;2023-08-21T11:42:15;29.50;99.90
23717;DHT22;22094;52.130;5.598;2023-08-21T11:44:47;29.80;99.90
23717;DHT22;22094;52.130;5.598;2023-08-21T11:49:43;29.60;99.90
23717;DHT22;22094;52.130;5.598;2023-08-21T11:52:10;28.70;99.90
23717;DHT22;22094;52.130;5.598;2023-08-21T11:54:37;29.70;99.90
23717;DHT22;22094;52.130;5.598;2023-08-21T11:57:06;29.70;99.90
23717;DHT22;22094;52.130;5.598;2023-08-21T12:04:25;29.50;99.90
23717;DHT22;22094;52.130;5.598;2023-08-21T12:16:37;30.00;99.90
23717;DHT22;22094;52.130;5.598;2023-08-21T12:21:28;29.80;99.90
23717;DHT22;22094;52.130;5.598;2023-08-21T12:28:47;30.50;99.90
23717;DHT22;22094;52.130;5.598;2023-08-21T12:48:16;30.60;99.90
23717;DHT22;22094;52.130;5.598;2023-08-21T13:15:03;31.60;99.90
23717;DHT22;22094;52.130;5.598;2023-08-21T13:17:29;31.30;99.90
23717;DHT22;22094;52.130;5.598;2023-08-21T13:24:47;32.50;99.90
23717;DHT22;22094;52.130;5.598;2023-08-21T13:27:12;32.00;99.90
23717;DHT22;22094;52.130;5.598;2023-08-21T13:29:38;31.90;99.90
23717;DHT22;22094;52.130;5.598;2023-08-21T13:32:05;32.10;99.90
23717;DHT22;22094;52.130;5.598;2023-08-21T13:34:31;32.00;99.90
23717;DHT22;22094;52.130;5.598;2023-08-21T13:36:56;31.30;99.90
23717;DHT22;22094;52.130;5.598;2023-08-21T13:41:48;30.70;99.90
23717;DHT22;22094;52.130;5.598;2023-08-21T13:44:17;30.00;99.90
23717;DHT22;22094;52.130;5.598;2023-08-21T13:46:43;29.90;99.90
23717;DHT22;22094;52.130;5.598;2023-08-21T13:49:09;30.60;99.90
23717;DHT22;22094;52.130;5.598;2023-08-21T13:51:34;29.80;99.90
23717;DHT22;22094;52.130;5.598;2023-08-21T13:54:00;28.40;99.90
23717;DHT22;22094;52.130;5.598;2023-08-21T13:56:26;29.90;99.90
23717;DHT22;22094;52.130;5.598;2023-08-21T13:58:51;29.60;99.90
23717;DHT22;22094;52.130;5.598;2023-08-21T14:01:17;31.40;99.90
23717;DHT22;22094;52.130;5.598;2023-08-21T14:03:42;31.30;99.90
23717;DHT22;22094;52.130;5.598;2023-08-21T14:06:08;31.60;99.90
23717;DHT22;22094;52.130;5.598;2023-08-21T14:08:37;32.00;99.90
23717;DHT22;22094;52.130;5.598;2023-08-21T14:11:03;32.30;99.90
23717;DHT22;22094;52.130;5.598;2023-08-21T14:13:28;32.70;99.90
23717;DHT22;22094;52.130;5.598;2023-08-21T14:15:54;32.50;99.90
23717;DHT22;22094;52.130;5.598;2023-08-21T14:18:20;34.80;99.90
23717;DHT22;22094;52.130;5.598;2023-08-21T14:20:45;35.00;99.90
23717;DHT22;22094;52.130;5.598;2023-08-21T14:23:11;35.40;99.90
23717;DHT22;22094;52.130;5.598;2023-08-21T14:25:37;35.40;99.90
23717;DHT22;22094;52.130;5.598;2023-08-21T14:28:03;35.00;99.90
23717;DHT22;22094;52.130;5.598;2023-08-21T14:30:29;34.70;99.90
23717;DHT22;22094;52.130;5.598;2023-08-21T14:32:55;34.60;99.90
23717;DHT22;22094;52.130;5.598;2023-08-21T14:35:21;34.70;99.90
23717;DHT22;22094;52.130;5.598;2023-08-21T14:37:47;35.10;99.90
23717;DHT22;22094;52.130;5.598;2023-08-21T14:40:12;31.90;99.90
23717;DHT22;22094;52.130;5.598;2023-08-21T14:42:38;31.40;99.90
23717;DHT22;22094;52.130;5.598;2023-08-21T14:45:04;31.30;99.90
23717;DHT22;22094;52.130;5.598;2023-08-21T14:47:31;31.00;99.90
23717;DHT22;22094;52.130;5.598;2023-08-21T14:49:56;32.50;99.90
23717;DHT22;22094;52.130;5.598;2023-08-21T14:52:22;33.00;99.90
23717;DHT22;22094;52.130;5.598;2023-08-21T14:54:52;33.20;99.90
23717;DHT22;22094;52.130;5.598;2023-08-21T14:57:18;35.70;99.90
23717;DHT22;22094;52.130;5.598;2023-08-21T14:59:43;36.80;99.90
23717;DHT22;22094;52.130;5.598;2023-08-21T15:02:09;36.50;99.90
23717;DHT22;22094;52.130;5.598;2023-08-21T15:04:34;37.10;99.90
23717;DHT22;22094;52.130;5.598;2023-08-21T15:07:01;37.90;98.30
23717;DHT22;22094;52.130;5.598;2023-08-21T15:09:27;36.90;96.60
23717;DHT22;22094;52.130;5.598;2023-08-21T15:11:53;36.10;97.60
23717;DHT22;22094;52.130;5.598;2023-08-21T15:14:18;36.20;99.90
23717;DHT22;22094;52.130;5.598;2023-08-21T15:16:44;37.40;97.60
23717;DHT22;22094;52.130;5.598;2023-08-21T15:19:09;37.40;99.90
23717;DHT22;22094;52.130;5.598;2023-08-21T15:21:35;37.60;99.90
23717;DHT22;22094;52.130;5.598;2023-08-21T15:24:01;38.20;99.90
23717;DHT22;22094;52.130;5.598;2023-08-21T15:26:26;38.30;99.90
23717;DHT22;22094;52.130;5.598;2023-08-21T15:28:52;39.00;80.50
23717;DHT22;22094;52.130;5.598;2023-08-21T15:31:18;38.20;97.00
23717;DHT22;22094;52.130;5.598;2023-08-21T15:33:43;38.10;92.70
23717;DHT22;22094;52.130;5.598;2023-08-21T15:36:09;37.70;74.10
23717;DHT22;22094;52.130;5.598;2023-08-21T15:38:34;37.50;68.50
23717;DHT22;22094;52.130;5.598;2023-08-21T15:41:00;36.30;69.10
23717;DHT22;22094;52.130;5.598;2023-08-21T15:43:25;33.60;83.90
23717;DHT22;22094;52.130;5.598;2023-08-21T15:45:51;34.50;95.00
23717;DHT22;22094;52.130;5.598;2023-08-21T15:48:18;35.30;96.40
23717;DHT22;22094;52.130;5.598;2023-08-21T15:50:43;35.60;97.30
23717;DHT22;22094;52.130;5.598;2023-08-21T15:53:09;35.70;93.40
23717;DHT22;22094;52.130;5.598;2023-08-21T15:55:35;36.40;93.90
23717;DHT22;22094;52.130;5.598;2023-08-21T15:58:00;35.80;95.10
23717;DHT22;22094;52.130;5.598;2023-08-21T16:00:26;34.70;94.60
23717;DHT22;22094;52.130;5.598;2023-08-21T16:02:51;33.50;91.70
23717;DHT22;22094;52.130;5.598;2023-08-21T16:05:18;31.40;70.50
23717;DHT22;22094;52.130;5.598;2023-08-21T16:07:44;30.10;93.10
23717;DHT22;22094;52.130;5.598;2023-08-21T16:12:38;28.90;75.50
23717;DHT22;22094;52.130;5.598;2023-08-21T16:15:04;28.30;91.20
23717;DHT22;22094;52.130;5.598;2023-08-21T16:17:30;28.20;94.40
23717;DHT22;22094;52.130;5.598;2023-08-21T16:19:55;28.70;96.60
23717;DHT22;22094;52.130;5.598;2023-08-21T16:22:21;29.20;95.90
23717;DHT22;22094;52.130;5.598;2023-08-21T16:24:47;29.40;95.60
23717;DHT22;22094;52.130;5.598;2023-08-21T16:27:12;29.30;97.20
23717;DHT22;22094;52.130;5.598;2023-08-21T16:29:38;28.70;87.60
23717;DHT22;22094;52.130;5.598;2023-08-21T16:32:04;28.60;96.60
23717;DHT22;22094;52.130;5.598;2023-08-21T16:34:29;28.00;95.60
23717;DHT22;22094;52.130;5.598;2023-08-21T16:36:55;27.40;96.00
23717;DHT22;22094;52.130;5.598;2023-08-21T16:39:21;27.40;94.00
23717;DHT22;22094;52.130;5.598;2023-08-21T16:41:48;27.50;97.10
23717;DHT22;22094;52.130;5.598;2023-08-21T16:44:13;27.50;98.90
23717;DHT22;22094;52.130;5.598;2023-08-21T16:46:39;27.80;97.80
23717;DHT22;22094;52.130;5.598;2023-08-21T16:49:04;27.80;93.70
23717;DHT22;22094;52.130;5.598;2023-08-21T16:51:31;27.80;99.90
23717;DHT22;22094;52.130;5.598;2023-08-21T16:53:56;27.50;98.90
23717;DHT22;22094;52.130;5.598;2023-08-21T16:56:24;27.70;99.90
23717;DHT22;22094;52.130;5.598;2023-08-21T16:58:51;27.50;99.90
23717;DHT22;22094;52.130;5.598;2023-08-21T17:01:16;25.90;93.50
23717;DHT22;22094;52.130;5.598;2023-08-21T17:03:42;26.60;99.90
23717;DHT22;22094;52.130;5.598;2023-08-21T17:06:07;26.40;99.90
23717;DHT22;22094;52.130;5.598;2023-08-21T17:08:33;26.20;99.90
23717;DHT22;22094;52.130;5.598;2023-08-21T17:10:59;25.60;99.90
23717;DHT22;22094;52.130;5.598;2023-08-21T17:13:24;25.60;99.90
23717;DHT22;22094;52.130;5.598;2023-08-21T17:15:50;25.30;99.90
23717;DHT22;22094;52.130;5.598;2023-08-21T17:18:18;24.40;99.90
23717;DHT22;22094;52.130;5.598;2023-08-21T17:20:43;25.10;99.90
23717;DHT22;22094;52.130;5.598;2023-08-21T17:23:09;25.10;99.90
23717;DHT22;22094;52.130;5.598;2023-08-21T17:25:35;25.00;99.90
23717;DHT22;22094;52.130;5.598;2023-08-21T17:28:00;24.90;99.90
23717;DHT22;22094;52.130;5.598;2023-08-21T17:30:26;24.80;99.90
23717;DHT22;22094;52.130;5.598;2023-08-21T17:32:55;24.70;99.90
23717;DHT22;22094;52.130;5.598;2023-08-21T17:35:21;24.60;99.90
23717;DHT22;22094;52.130;5.598;2023-08-21T17:37:47;24.50;99.90
23717;DHT22;22094;52.130;5.598;2023-08-21T17:40:12;24.30;99.90
23717;DHT22;22094;52.130;5.598;2023-08-21T17:42:38;24.10;99.90
23717;DHT22;22094;52.130;5.598;2023-08-21T17:45:04;23.90;99.90
23717;DHT22;22094;52.130;5.598;2023-08-21T17:47:29;23.80;99.90
23717;DHT22;22094;52.130;5.598;2023-08-21T17:49:55;23.80;99.90
23717;DHT22;22094;52.130;5.598;2023-08-21T17:52:20;23.70;99.90
23717;DHT22;22094;52.130;5.598;2023-08-21T17:54:46;23.60;99.90
23717;DHT22;22094;52.130;5.598;2023-08-21T17:57:12;23.50;99.90